sensor_id;sensor_type;location;lat;lon;timestamp;temperature;humidity
19665;DHT22;9980;51.020;7.772;2022-07-23T00:01:38;21.10;93.50
19665;DHT22;9980;51.020;7.772;2022-07-23T00:04:07;21.10;93.60
19665;DHT22;9980;51.020;7.772;2022-07-23T00:06:34;21.10;93.60
19665;DHT22;9980;51.020;7.772;2022-07-23T00:09:02;21.10;93.50
19665;DHT22;9980;51.020;7.772;2022-07-23T00:11:30;21.00;93.50
19665;DHT22;9980;51.020;7.772;2022-07-23T00:13:56;21.00;93.60
19665;DHT22;9980;51.020;7.772;2022-07-23T00:16:25;21.00;93.70
19665;DHT22;9980;51.020;7.772;2022-07-23T00:18:52;21.00;93.70
19665;DHT22;9980;51.020;7.772;2022-07-23T00:21:19;21.00;93.70
19665;DHT22;9980;51.020;7.772;2022-07-23T00:23:46;21.00;93.50
19665;DHT22;9980;51.020;7.772;2022-07-23T00:26:13;21.00;93.40
19665;DHT22;9980;51.020;7.772;2022-07-23T00:28:40;21.00;93.40
19665;DHT22;9980;51.020;7.772;2022-07-23T00:31:07;20.90;93.30
19665;DHT22;9980;51.020;7.772;2022-07-23T00:33:34;21.00;93.20
19665;DHT22;9980;51.020;7.772;2022-07-23T00:36:01;20.90;93.20
19665;DHT22;9980;51.020;7.772;2022-07-23T00:38:29;20.90;93.10
19665;DHT22;9980;51.020;7.772;2022-07-23T00:40:57;20.90;93.00
19665;DHT22;9980;51.020;7.772;2022-07-23T00:43:24;20.90;93.10
19665;DHT22;9980;51.020;7.772;2022-07-23T00:45:51;20.90;93.10
19665;DHT22;9980;51.020;7.772;2022-07-23T00:48:18;20.90;93.10
19665;DHT22;9980;51.020;7.772;2022-07-23T00:50:46;20.90;93.00
19665;DHT22;9980;51.020;7.772;2022-07-23T00:53:13;20.90;93.00
19665;DHT22;9980;51.020;7.772;2022-07-23T00:55:40;20.90;92.90
19665;DHT22;9980;51.020;7.772;2022-07-23T00:58:07;20.90;93.00
19665;DHT22;9980;51.020;7.772;2022-07-23T01:00:35;20.80;93.00
19665;DHT22;9980;51.020;7.772;2022-07-23T01:03:02;20.80;92.80
19665;DHT22;9980;51.020;7.772;2022-07-23T01:05:29;20.80;92.80
19665;DHT22;9980;51.020;7.772;2022-07-23T01:07:56;20.80;92.80
19665;DHT22;9980;51.020;7.772;2022-07-23T01:10:24;20.80;92.80
19665;DHT22;9980;51.020;7.772;2022-07-23T01:13:06;20.80;92.90
19665;DHT22;9980;51.020;7.772;2022-07-23T01:15:37;20.80;92.80
19665;DHT22;9980;51.020;7.772;2022-07-23T01:18:06;20.80;92.80
19665;DHT22;9980;51.020;7.772;2022-07-23T01:20:36;20.80;92.70
19665;DHT22;9980;51.020;7.772;2022-07-23T01:23:03;20.80;92.60
19665;DHT22;9980;51.020;7.772;2022-07-23T01:25:30;20.80;92.80
19665;DHT22;9980;51.020;7.772;2022-07-23T01:28:01;20.80;92.80
19665;DHT22;9980;51.020;7.772;2022-07-23T01:30:28;20.70;92.70
19665;DHT22;9980;51.020;7.772;2022-07-23T01:32:56;20.70;92.70
19665;DHT22;9980;51.020;7.772;2022-07-23T01:35:24;20.80;92.80
19665;DHT22;9980;51.020;7.772;2022-07-23T01:37:54;20.70;92.80
19665;DHT22;9980;51.020;7.772;2022-07-23T01:40:22;20.70;92.90
19665;DHT22;9980;51.020;7.772;2022-07-23T01:42:50;20.70;92.80
19665;DHT22;9980;51.020;7.772;2022-07-23T01:45:18;20.70;92.90
19665;DHT22;9980;51.020;7.772;2022-07-23T01:47:49;20.70;92.80
19665;DHT22;9980;51.020;7.772;2022-07-23T01:50:16;20.70;92.80
19665;DHT22;9980;51.020;7.772;2022-07-23T01:52:52;20.70;92.80
19665;DHT22;9980;51.020;7.772;2022-07-23T01:55:19;20.70;92.90
19665;DHT22;9980;51.020;7.772;2022-07-23T01:57:48;20.70;92.80
19665;DHT22;9980;51.020;7.772;2022-07-23T02:00:19;20.60;92.80
19665;DHT22;9980;51.020;7.772;2022-07-23T02:02:48;20.60;92.80
19665;DHT22;9980;51.020;7.772;2022-07-23T02:05:15;20.60;92.70
19665;DHT22;9980;51.020;7.772;2022-07-23T02:07:44;20.60;92.70
19665;DHT22;9980;51.020;7.772;2022-07-23T02:10:11;20.60;92.80
19665;DHT22;9980;51.020;7.772;2022-07-23T02:12:38;20.60;92.80
19665;DHT22;9980;51.020;7.772;2022-07-23T02:15:06;20.60;92.80
19665;DHT22;9980;51.020;7.772;2022-07-23T02:17:35;20.60;93.00
19665;DHT22;9980;51.020;7.772;2022-07-23T02:20:03;20.50;92.90
19665;DHT22;9980;51.020;7.772;2022-07-23T02:22:30;20.50;92.90
19665;DHT22;9980;51.020;7.772;2022-07-23T02:24:57;20.50;92.90
19665;DHT22;9980;51.020;7.772;2022-07-23T02:27:24;20.50;93.10
19665;DHT22;9980;51.020;7.772;2022-07-23T02:29:52;20.50;93.10
19665;DHT22;9980;51.020;7.772;2022-07-23T02:32:19;20.50;93.10
19665;DHT22;9980;51.020;7.772;2022-07-23T02:34:48;20.50;93.10
19665;DHT22;9980;51.020;7.772;2022-07-23T02:37:16;20.40;93.30
19665;DHT22;9980;51.020;7.772;2022-07-23T02:39:43;20.50;93.20
19665;DHT22;9980;51.020;7.772;2022-07-23T02:42:11;20.50;93.20
19665;DHT22;9980;51.020;7.772;2022-07-23T02:44:40;20.40;93.20
19665;DHT22;9980;51.020;7.772;2022-07-23T02:47:07;20.40;93.30
19665;DHT22;9980;51.020;7.772;2022-07-23T02:49:34;20.40;93.30
19665;DHT22;9980;51.020;7.772;2022-07-23T02:52:04;20.40;93.40
19665;DHT22;9980;51.020;7.772;2022-07-23T02:54:31;20.40;93.40
19665;DHT22;9980;51.020;7.772;2022-07-23T02:57:02;20.40;93.40
19665;DHT22;9980;51.020;7.772;2022-07-23T02:59:30;20.40;93.60
19665;DHT22;9980;51.020;7.772;2022-07-23T03:01:57;20.40;93.60
19665;DHT22;9980;51.020;7.772;2022-07-23T03:04:25;20.40;93.70
19665;DHT22;9980;51.020;7.772;2022-07-23T03:06:52;20.40;93.70
19665;DHT22;9980;51.020;7.772;2022-07-23T03:09:18;20.40;93.60
19665;DHT22;9980;51.020;7.772;2022-07-23T03:11:45;20.40;93.70
19665;DHT22;9980;51.020;7.772;2022-07-23T03:14:12;20.30;93.60
19665;DHT22;9980;51.020;7.772;2022-07-23T03:16:40;20.40;93.80
19665;DHT22;9980;51.020;7.772;2022-07-23T03:19:07;20.30;93.80
19665;DHT22;9980;51.020;7.772;2022-07-23T03:21:34;20.30;93.80
19665;DHT22;9980;51.020;7.772;2022-07-23T03:24:02;20.30;93.70
19665;DHT22;9980;51.020;7.772;2022-07-23T03:26:29;20.30;93.70
19665;DHT22;9980;51.020;7.772;2022-07-23T03:28:57;20.30;93.70
19665;DHT22;9980;51.020;7.772;2022-07-23T03:31:24;20.30;94.00
19665;DHT22;9980;51.020;7.772;2022-07-23T03:33:51;20.20;93.80
19665;DHT22;9980;51.020;7.772;2022-07-23T03:36:19;20.20;93.60
19665;DHT22;9980;51.020;7.772;2022-07-23T03:38:49;20.20;93.70
19665;DHT22;9980;51.020;7.772;2022-07-23T03:41:18;20.20;93.90
19665;DHT22;9980;51.020;7.772;2022-07-23T03:43:46;20.20;94.00
19665;DHT22;9980;51.020;7.772;2022-07-23T03:46:13;20.20;94.00
19665;DHT22;9980;51.020;7.772;2022-07-23T03:48:40;20.10;94.00
19665;DHT22;9980;51.020;7.772;2022-07-23T03:51:07;20.10;94.00
19665;DHT22;9980;51.020;7.772;2022-07-23T03:53:34;20.10;94.10
19665;DHT22;9980;51.020;7.772;2022-07-23T03:56:03;20.10;94.00
19665;DHT22;9980;51.020;7.772;2022-07-23T03:58:31;20.00;94.00
19665;DHT22;9980;51.020;7.772;2022-07-23T04:00:58;20.00;94.00
19665;DHT22;9980;51.020;7.772;2022-07-23T04:03:24;20.00;94.00
19665;DHT22;9980;51.020;7.772;2022-07-23T04:05:52;19.90;94.00
19665;DHT22;9980;51.020;7.772;2022-07-23T04:08:20;19.90;94.00
19665;DHT22;9980;51.020;7.772;2022-07-23T04:10:50;19.80;94.10
19665;DHT22;9980;51.020;7.772;2022-07-23T04:13:17;19.80;94.10
19665;DHT22;9980;51.020;7.772;2022-07-23T04:15:44;19.80;94.20
19665;DHT22;9980;51.020;7.772;2022-07-23T04:18:11;19.70;94.30
19665;DHT22;9980;51.020;7.772;2022-07-23T04:20:46;19.70;94.30
19665;DHT22;9980;51.020;7.772;2022-07-23T04:23:15;19.70;94.30
19665;DHT22;9980;51.020;7.772;2022-07-23T04:25:42;19.70;94.40
19665;DHT22;9980;51.020;7.772;2022-07-23T04:28:09;19.70;94.40
19665;DHT22;9980;51.020;7.772;2022-07-23T04:30:36;19.60;94.40
19665;DHT22;9980;51.020;7.772;2022-07-23T04:33:05;19.60;94.50
19665;DHT22;9980;51.020;7.772;2022-07-23T04:35:36;19.60;94.60
19665;DHT22;9980;51.020;7.772;2022-07-23T04:38:12;19.60;94.80
19665;DHT22;9980;51.020;7.772;2022-07-23T04:40:39;19.50;94.70
19665;DHT22;9980;51.020;7.772;2022-07-23T04:43:06;19.50;94.70
19665;DHT22;9980;51.020;7.772;2022-07-23T04:45:40;19.50;94.80
19665;DHT22;9980;51.020;7.772;2022-07-23T04:48:09;19.50;94.90
19665;DHT22;9980;51.020;7.772;2022-07-23T04:50:36;19.50;95.00
19665;DHT22;9980;51.020;7.772;2022-07-23T04:53:04;19.50;95.10
19665;DHT22;9980;51.020;7.772;2022-07-23T04:55:32;19.50;95.20
19665;DHT22;9980;51.020;7.772;2022-07-23T04:57:59;19.50;95.30
19665;DHT22;9980;51.020;7.772;2022-07-23T05:00:26;19.50;95.50
19665;DHT22;9980;51.020;7.772;2022-07-23T05:02:52;19.50;95.80
19665;DHT22;9980;51.020;7.772;2022-07-23T05:05:19;19.60;96.10
19665;DHT22;9980;51.020;7.772;2022-07-23T05:07:47;19.60;96.20
19665;DHT22;9980;51.020;7.772;2022-07-23T05:10:14;19.80;96.30
19665;DHT22;9980;51.020;7.772;2022-07-23T05:12:40;19.90;96.40
19665;DHT22;9980;51.020;7.772;2022-07-23T05:15:08;19.90;96.50
19665;DHT22;9980;51.020;7.772;2022-07-23T05:17:35;20.00;96.30
19665;DHT22;9980;51.020;7.772;2022-07-23T05:20:09;20.10;96.60
19665;DHT22;9980;51.020;7.772;2022-07-23T05:22:36;20.30;96.30
19665;DHT22;9980;51.020;7.772;2022-07-23T05:25:03;20.40;96.10
19665;DHT22;9980;51.020;7.772;2022-07-23T05:27:31;20.40;95.80
19665;DHT22;9980;51.020;7.772;2022-07-23T05:29:58;20.50;95.90
19665;DHT22;9980;51.020;7.772;2022-07-23T05:32:25;20.60;95.70
19665;DHT22;9980;51.020;7.772;2022-07-23T05:35:04;20.60;95.70
19665;DHT22;9980;51.020;7.772;2022-07-23T05:37:33;20.70;95.60
19665;DHT22;9980;51.020;7.772;2022-07-23T05:40:05;20.80;95.50
19665;DHT22;9980;51.020;7.772;2022-07-23T05:42:35;20.90;95.70
19665;DHT22;9980;51.020;7.772;2022-07-23T05:45:04;21.00;95.30
19665;DHT22;9980;51.020;7.772;2022-07-23T05:47:40;21.00;95.30
19665;DHT22;9980;51.020;7.772;2022-07-23T05:50:16;21.10;95.00
19665;DHT22;9980;51.020;7.772;2022-07-23T05:52:47;21.20;94.90
19665;DHT22;9980;51.020;7.772;2022-07-23T05:55:38;21.20;94.90
19665;DHT22;9980;51.020;7.772;2022-07-23T05:58:05;21.30;94.70
19665;DHT22;9980;51.020;7.772;2022-07-23T06:00:33;21.30;94.80
19665;DHT22;9980;51.020;7.772;2022-07-23T06:03:00;21.40;94.80
19665;DHT22;9980;51.020;7.772;2022-07-23T06:05:29;21.40;94.60
19665;DHT22;9980;51.020;7.772;2022-07-23T06:07:57;21.50;94.70
19665;DHT22;9980;51.020;7.772;2022-07-23T06:10:26;21.60;94.40
19665;DHT22;9980;51.020;7.772;2022-07-23T06:12:53;21.60;94.10
19665;DHT22;9980;51.020;7.772;2022-07-23T06:15:27;21.70;93.80
19665;DHT22;9980;51.020;7.772;2022-07-23T06:17:55;21.70;93.80
19665;DHT22;9980;51.020;7.772;2022-07-23T06:20:22;21.80;93.30
19665;DHT22;9980;51.020;7.772;2022-07-23T06:22:49;21.80;93.20
19665;DHT22;9980;51.020;7.772;2022-07-23T06:25:16;21.90;93.20
19665;DHT22;9980;51.020;7.772;2022-07-23T06:27:46;22.00;92.60
19665;DHT22;9980;51.020;7.772;2022-07-23T06:30:14;22.00;92.30
19665;DHT22;9980;51.020;7.772;2022-07-23T06:32:48;22.00;92.10
19665;DHT22;9980;51.020;7.772;2022-07-23T06:35:16;22.00;92.30
19665;DHT22;9980;51.020;7.772;2022-07-23T06:37:46;22.00;91.70
19665;DHT22;9980;51.020;7.772;2022-07-23T06:40:14;22.10;91.70
19665;DHT22;9980;51.020;7.772;2022-07-23T06:42:42;22.10;91.50
19665;DHT22;9980;51.020;7.772;2022-07-23T06:45:15;22.10;91.40
19665;DHT22;9980;51.020;7.772;2022-07-23T06:47:42;22.20;91.60
19665;DHT22;9980;51.020;7.772;2022-07-23T06:50:09;22.20;91.60
19665;DHT22;9980;51.020;7.772;2022-07-23T06:52:40;22.30;91.50
19665;DHT22;9980;51.020;7.772;2022-07-23T06:55:09;22.40;90.90
19665;DHT22;9980;51.020;7.772;2022-07-23T06:57:37;22.50;90.90
19665;DHT22;9980;51.020;7.772;2022-07-23T07:00:06;22.50;91.00
19665;DHT22;9980;51.020;7.772;2022-07-23T07:02:34;22.60;90.90
19665;DHT22;9980;51.020;7.772;2022-07-23T07:05:02;22.70;90.70
19665;DHT22;9980;51.020;7.772;2022-07-23T07:07:32;22.80;90.70
19665;DHT22;9980;51.020;7.772;2022-07-23T07:10:00;22.90;90.20
19665;DHT22;9980;51.020;7.772;2022-07-23T07:12:29;22.90;90.00
19665;DHT22;9980;51.020;7.772;2022-07-23T07:14:55;23.00;90.00
19665;DHT22;9980;51.020;7.772;2022-07-23T07:17:24;23.00;89.30
19665;DHT22;9980;51.020;7.772;2022-07-23T07:19:50;23.10;89.40
19665;DHT22;9980;51.020;7.772;2022-07-23T07:22:17;23.10;89.30
19665;DHT22;9980;51.020;7.772;2022-07-23T07:24:44;23.20;88.90
19665;DHT22;9980;51.020;7.772;2022-07-23T07:27:11;23.20;89.60
19665;DHT22;9980;51.020;7.772;2022-07-23T07:29:38;23.30;89.40
19665;DHT22;9980;51.020;7.772;2022-07-23T07:32:05;23.40;89.30
19665;DHT22;9980;51.020;7.772;2022-07-23T07:34:32;23.40;88.10
19665;DHT22;9980;51.020;7.772;2022-07-23T07:36:59;23.50;87.50
19665;DHT22;9980;51.020;7.772;2022-07-23T07:39:26;23.50;87.00
19665;DHT22;9980;51.020;7.772;2022-07-23T07:41:53;23.70;87.50
19665;DHT22;9980;51.020;7.772;2022-07-23T07:44:20;23.70;87.10
19665;DHT22;9980;51.020;7.772;2022-07-23T07:46:47;23.80;87.30
19665;DHT22;9980;51.020;7.772;2022-07-23T07:49:14;23.80;86.70
19665;DHT22;9980;51.020;7.772;2022-07-23T07:51:48;23.90;86.40
19665;DHT22;9980;51.020;7.772;2022-07-23T07:54:15;24.00;86.10
19665;DHT22;9980;51.020;7.772;2022-07-23T07:56:42;24.10;87.30
19665;DHT22;9980;51.020;7.772;2022-07-23T07:59:09;24.20;85.70
19665;DHT22;9980;51.020;7.772;2022-07-23T08:01:37;24.30;85.60
19665;DHT22;9980;51.020;7.772;2022-07-23T08:04:04;24.40;85.50
19665;DHT22;9980;51.020;7.772;2022-07-23T08:06:32;24.50;86.10
19665;DHT22;9980;51.020;7.772;2022-07-23T08:08:59;24.60;85.30
19665;DHT22;9980;51.020;7.772;2022-07-23T08:11:26;24.60;84.70
19665;DHT22;9980;51.020;7.772;2022-07-23T08:13:53;24.70;84.60
19665;DHT22;9980;51.020;7.772;2022-07-23T08:16:20;24.80;83.90
19665;DHT22;9980;51.020;7.772;2022-07-23T08:18:47;24.80;83.60
19665;DHT22;9980;51.020;7.772;2022-07-23T08:21:14;24.90;83.10
19665;DHT22;9980;51.020;7.772;2022-07-23T08:23:41;25.00;83.60
19665;DHT22;9980;51.020;7.772;2022-07-23T08:26:08;25.10;83.80
19665;DHT22;9980;51.020;7.772;2022-07-23T08:28:35;25.20;82.90
19665;DHT22;9980;51.020;7.772;2022-07-23T08:31:02;25.20;83.00
19665;DHT22;9980;51.020;7.772;2022-07-23T08:33:32;25.30;82.50
19665;DHT22;9980;51.020;7.772;2022-07-23T08:36:03;25.40;83.30
19665;DHT22;9980;51.020;7.772;2022-07-23T08:38:32;25.40;81.80
19665;DHT22;9980;51.020;7.772;2022-07-23T08:41:00;25.50;80.10
19665;DHT22;9980;51.020;7.772;2022-07-23T08:43:29;25.60;78.70
19665;DHT22;9980;51.020;7.772;2022-07-23T08:45:59;25.70;80.00
19665;DHT22;9980;51.020;7.772;2022-07-23T08:48:29;25.80;80.80
19665;DHT22;9980;51.020;7.772;2022-07-23T08:51:00;25.90;79.50
19665;DHT22;9980;51.020;7.772;2022-07-23T08:53:30;26.00;77.70
19665;DHT22;9980;51.020;7.772;2022-07-23T08:56:00;26.00;78.70
19665;DHT22;9980;51.020;7.772;2022-07-23T08:58:28;26.10;76.60
19665;DHT22;9980;51.020;7.772;2022-07-23T09:00:56;26.20;77.50
19665;DHT22;9980;51.020;7.772;2022-07-23T09:03:32;26.30;75.20
19665;DHT22;9980;51.020;7.772;2022-07-23T09:06:02;26.30;75.60
19665;DHT22;9980;51.020;7.772;2022-07-23T09:08:39;26.40;75.10
19665;DHT22;9980;51.020;7.772;2022-07-23T09:11:12;26.40;73.30
19665;DHT22;9980;51.020;7.772;2022-07-23T09:13:51;26.50;72.60
19665;DHT22;9980;51.020;7.772;2022-07-23T09:16:29;26.50;72.80
19665;DHT22;9980;51.020;7.772;2022-07-23T09:18:58;26.60;73.90
19665;DHT22;9980;51.020;7.772;2022-07-23T09:21:28;26.60;73.20
19665;DHT22;9980;51.020;7.772;2022-07-23T09:24:02;26.70;73.40
19665;DHT22;9980;51.020;7.772;2022-07-23T09:29:12;26.80;75.30
19665;DHT22;9980;51.020;7.772;2022-07-23T09:31:45;26.90;75.10
19665;DHT22;9980;51.020;7.772;2022-07-23T09:34:22;27.00;72.80
19665;DHT22;9980;51.020;7.772;2022-07-23T09:36:58;27.10;72.40
19665;DHT22;9980;51.020;7.772;2022-07-23T09:39:36;27.20;71.50
19665;DHT22;9980;51.020;7.772;2022-07-23T09:42:20;27.20;72.00
19665;DHT22;9980;51.020;7.772;2022-07-23T09:44:52;27.30;71.20
19665;DHT22;9980;51.020;7.772;2022-07-23T09:47:21;27.30;71.40
19665;DHT22;9980;51.020;7.772;2022-07-23T09:50:04;27.40;70.90
19665;DHT22;9980;51.020;7.772;2022-07-23T09:52:45;27.40;71.80
19665;DHT22;9980;51.020;7.772;2022-07-23T09:55:16;27.50;72.00
19665;DHT22;9980;51.020;7.772;2022-07-23T09:57:45;27.60;71.90
19665;DHT22;9980;51.020;7.772;2022-07-23T10:00:16;27.70;72.10
19665;DHT22;9980;51.020;7.772;2022-07-23T10:02:46;27.80;73.70
19665;DHT22;9980;51.020;7.772;2022-07-23T10:05:44;27.90;71.60
19665;DHT22;9980;51.020;7.772;2022-07-23T10:08:34;28.00;70.30
19665;DHT22;9980;51.020;7.772;2022-07-23T10:11:12;28.10;71.00
19665;DHT22;9980;51.020;7.772;2022-07-23T10:13:54;28.20;69.70
19665;DHT22;9980;51.020;7.772;2022-07-23T10:16:50;28.30;70.20
19665;DHT22;9980;51.020;7.772;2022-07-23T10:19:18;28.40;72.10
19665;DHT22;9980;51.020;7.772;2022-07-23T10:21:49;28.50;70.90
19665;DHT22;9980;51.020;7.772;2022-07-23T10:27:19;28.60;68.60
19665;DHT22;9980;51.020;7.772;2022-07-23T10:36:31;28.90;68.00
19665;DHT22;9980;51.020;7.772;2022-07-23T10:41:46;29.00;62.90
19665;DHT22;9980;51.020;7.772;2022-07-23T10:44:16;29.00;65.00
19665;DHT22;9980;51.020;7.772;2022-07-23T10:47:01;29.00;62.20
19665;DHT22;9980;51.020;7.772;2022-07-23T10:49:33;29.10;60.60
19665;DHT22;9980;51.020;7.772;2022-07-23T10:54:55;29.10;58.90
19665;DHT22;9980;51.020;7.772;2022-07-23T10:57:49;29.10;61.70
19665;DHT22;9980;51.020;7.772;2022-07-23T11:00:26;29.20;62.50
19665;DHT22;9980;51.020;7.772;2022-07-23T11:02:59;29.20;59.90
19665;DHT22;9980;51.020;7.772;2022-07-23T11:05:42;29.30;61.30
19665;DHT22;9980;51.020;7.772;2022-07-23T11:08:18;29.40;59.80
19665;DHT22;9980;51.020;7.772;2022-07-23T11:10:49;29.40;61.60
19665;DHT22;9980;51.020;7.772;2022-07-23T11:24:13;29.60;58.80
19665;DHT22;9980;51.020;7.772;2022-07-23T11:26:55;29.70;58.10
19665;DHT22;9980;51.020;7.772;2022-07-23T11:34:33;29.80;58.10
19665;DHT22;9980;51.020;7.772;2022-07-23T11:37:04;29.80;58.20
19665;DHT22;9980;51.020;7.772;2022-07-23T11:39:34;29.80;58.70
19665;DHT22;9980;51.020;7.772;2022-07-23T11:42:03;29.90;58.10
19665;DHT22;9980;51.020;7.772;2022-07-23T11:44:32;30.00;57.70
19665;DHT22;9980;51.020;7.772;2022-07-23T11:47:07;30.00;57.80
19665;DHT22;9980;51.020;7.772;2022-07-23T11:49:36;30.00;57.20
19665;DHT22;9980;51.020;7.772;2022-07-23T11:52:08;30.00;56.70
19665;DHT22;9980;51.020;7.772;2022-07-23T11:54:49;30.10;59.20
19665;DHT22;9980;51.020;7.772;2022-07-23T11:57:20;30.10;59.50
19665;DHT22;9980;51.020;7.772;2022-07-23T11:59:56;30.20;56.80
19665;DHT22;9980;51.020;7.772;2022-07-23T12:02:48;30.20;56.20
19665;DHT22;9980;51.020;7.772;2022-07-23T12:05:25;30.30;57.30
19665;DHT22;9980;51.020;7.772;2022-07-23T12:07:55;30.30;57.90
19665;DHT22;9980;51.020;7.772;2022-07-23T12:10:28;30.40;56.90
19665;DHT22;9980;51.020;7.772;2022-07-23T12:13:05;30.50;58.70
19665;DHT22;9980;51.020;7.772;2022-07-23T12:15:40;30.50;59.20
19665;DHT22;9980;51.020;7.772;2022-07-23T12:18:11;30.50;57.40
19665;DHT22;9980;51.020;7.772;2022-07-23T12:20:42;30.60;56.80
19665;DHT22;9980;51.020;7.772;2022-07-23T12:23:13;30.70;55.70
19665;DHT22;9980;51.020;7.772;2022-07-23T12:25:48;30.70;57.80
19665;DHT22;9980;51.020;7.772;2022-07-23T12:28:17;30.80;56.30
19665;DHT22;9980;51.020;7.772;2022-07-23T12:30:53;30.80;57.30
19665;DHT22;9980;51.020;7.772;2022-07-23T12:33:29;30.90;56.80
19665;DHT22;9980;51.020;7.772;2022-07-23T12:36:04;30.90;55.90
19665;DHT22;9980;51.020;7.772;2022-07-23T12:41:06;30.90;57.20
19665;DHT22;9980;51.020;7.772;2022-07-23T12:43:37;31.10;57.20
19665;DHT22;9980;51.020;7.772;2022-07-23T12:46:11;31.10;58.10
19665;DHT22;9980;51.020;7.772;2022-07-23T12:48:51;31.10;56.70
19665;DHT22;9980;51.020;7.772;2022-07-23T12:51:26;31.10;56.00
19665;DHT22;9980;51.020;7.772;2022-07-23T12:53:59;31.20;55.20
19665;DHT22;9980;51.020;7.772;2022-07-23T12:56:34;31.20;54.70
19665;DHT22;9980;51.020;7.772;2022-07-23T12:59:10;31.30;53.90
19665;DHT22;9980;51.020;7.772;2022-07-23T13:01:45;31.30;54.40
19665;DHT22;9980;51.020;7.772;2022-07-23T13:04:23;31.30;54.40
19665;DHT22;9980;51.020;7.772;2022-07-23T13:06:56;31.30;56.10
19665;DHT22;9980;51.020;7.772;2022-07-23T13:09:32;31.30;55.20
19665;DHT22;9980;51.020;7.772;2022-07-23T13:12:08;31.40;53.50
19665;DHT22;9980;51.020;7.772;2022-07-23T13:14:37;31.30;55.00
19665;DHT22;9980;51.020;7.772;2022-07-23T13:17:05;31.40;55.70
19665;DHT22;9980;51.020;7.772;2022-07-23T13:19:32;31.40;55.20
19665;DHT22;9980;51.020;7.772;2022-07-23T13:22:01;31.40;54.80
19665;DHT22;9980;51.020;7.772;2022-07-23T13:24:35;31.50;55.70
19665;DHT22;9980;51.020;7.772;2022-07-23T13:27:05;31.50;53.70
19665;DHT22;9980;51.020;7.772;2022-07-23T13:29:37;31.50;52.60
19665;DHT22;9980;51.020;7.772;2022-07-23T13:32:04;31.50;53.30
19665;DHT22;9980;51.020;7.772;2022-07-23T13:34:40;31.60;52.90
19665;DHT22;9980;51.020;7.772;2022-07-23T13:37:08;31.60;51.70
19665;DHT22;9980;51.020;7.772;2022-07-23T13:39:35;31.60;53.30
19665;DHT22;9980;51.020;7.772;2022-07-23T13:42:04;31.50;52.60
19665;DHT22;9980;51.020;7.772;2022-07-23T13:44:33;31.60;53.00
19665;DHT22;9980;51.020;7.772;2022-07-23T13:47:03;31.60;53.00
19665;DHT22;9980;51.020;7.772;2022-07-23T13:49:31;31.60;53.10
19665;DHT22;9980;51.020;7.772;2022-07-23T13:51:58;31.60;53.30
19665;DHT22;9980;51.020;7.772;2022-07-23T13:54:25;31.60;53.70
19665;DHT22;9980;51.020;7.772;2022-07-23T13:56:54;31.60;53.50
19665;DHT22;9980;51.020;7.772;2022-07-23T13:59:23;31.60;52.00
19665;DHT22;9980;51.020;7.772;2022-07-23T14:01:53;31.50;53.90
19665;DHT22;9980;51.020;7.772;2022-07-23T14:04:41;31.50;52.20
19665;DHT22;9980;51.020;7.772;2022-07-23T14:07:10;31.50;51.90
19665;DHT22;9980;51.020;7.772;2022-07-23T14:09:38;31.50;52.50
19665;DHT22;9980;51.020;7.772;2022-07-23T14:12:05;31.40;52.20
19665;DHT22;9980;51.020;7.772;2022-07-23T14:14:33;31.40;51.80
19665;DHT22;9980;51.020;7.772;2022-07-23T14:17:03;31.40;52.50
19665;DHT22;9980;51.020;7.772;2022-07-23T14:19:32;31.30;52.50
19665;DHT22;9980;51.020;7.772;2022-07-23T14:22:00;31.20;53.40
19665;DHT22;9980;51.020;7.772;2022-07-23T14:24:27;31.20;52.10
19665;DHT22;9980;51.020;7.772;2022-07-23T14:27:04;31.20;52.60
19665;DHT22;9980;51.020;7.772;2022-07-23T14:29:32;31.10;52.20
19665;DHT22;9980;51.020;7.772;2022-07-23T14:32:01;31.00;53.40
19665;DHT22;9980;51.020;7.772;2022-07-23T14:34:29;30.90;53.10
19665;DHT22;9980;51.020;7.772;2022-07-23T14:36:57;30.90;52.40
19665;DHT22;9980;51.020;7.772;2022-07-23T14:39:25;30.90;54.40
19665;DHT22;9980;51.020;7.772;2022-07-23T14:41:52;30.90;55.10
19665;DHT22;9980;51.020;7.772;2022-07-23T14:44:19;31.00;54.90
19665;DHT22;9980;51.020;7.772;2022-07-23T14:46:47;31.10;53.90
19665;DHT22;9980;51.020;7.772;2022-07-23T14:49:14;31.10;52.70
19665;DHT22;9980;51.020;7.772;2022-07-23T14:51:42;31.20;54.00
19665;DHT22;9980;51.020;7.772;2022-07-23T14:54:10;31.20;53.70
19665;DHT22;9980;51.020;7.772;2022-07-23T14:56:38;31.30;53.30
19665;DHT22;9980;51.020;7.772;2022-07-23T14:59:06;31.40;52.60
19665;DHT22;9980;51.020;7.772;2022-07-23T15:01:33;31.40;53.10
19665;DHT22;9980;51.020;7.772;2022-07-23T15:04:01;31.40;52.20
19665;DHT22;9980;51.020;7.772;2022-07-23T15:06:48;31.50;52.10
19665;DHT22;9980;51.020;7.772;2022-07-23T15:09:15;31.50;51.40
19665;DHT22;9980;51.020;7.772;2022-07-23T15:11:42;31.50;51.50
19665;DHT22;9980;51.020;7.772;2022-07-23T15:14:11;31.50;51.70
19665;DHT22;9980;51.020;7.772;2022-07-23T15:16:50;31.60;51.20
19665;DHT22;9980;51.020;7.772;2022-07-23T15:27:33;31.70;50.40
19665;DHT22;9980;51.020;7.772;2022-07-23T15:30:00;31.70;50.70
19665;DHT22;9980;51.020;7.772;2022-07-23T15:32:27;31.70;51.20
19665;DHT22;9980;51.020;7.772;2022-07-23T15:34:54;31.60;50.10
19665;DHT22;9980;51.020;7.772;2022-07-23T15:37:22;31.50;50.60
19665;DHT22;9980;51.020;7.772;2022-07-23T15:39:50;31.40;50.40
19665;DHT22;9980;51.020;7.772;2022-07-23T15:42:19;31.30;51.30
19665;DHT22;9980;51.020;7.772;2022-07-23T15:44:46;31.20;50.60
19665;DHT22;9980;51.020;7.772;2022-07-23T15:47:15;31.20;50.60
19665;DHT22;9980;51.020;7.772;2022-07-23T15:49:45;31.20;51.70
19665;DHT22;9980;51.020;7.772;2022-07-23T15:52:13;31.10;50.10
19665;DHT22;9980;51.020;7.772;2022-07-23T15:54:40;31.10;51.00
19665;DHT22;9980;51.020;7.772;2022-07-23T15:57:08;31.10;50.80
19665;DHT22;9980;51.020;7.772;2022-07-23T15:59:35;31.10;50.40
19665;DHT22;9980;51.020;7.772;2022-07-23T16:02:03;31.10;51.40
19665;DHT22;9980;51.020;7.772;2022-07-23T16:04:31;31.10;51.00
19665;DHT22;9980;51.020;7.772;2022-07-23T16:07:00;31.10;50.30
19665;DHT22;9980;51.020;7.772;2022-07-23T16:09:27;31.10;49.60
19665;DHT22;9980;51.020;7.772;2022-07-23T16:11:55;31.10;49.90
19665;DHT22;9980;51.020;7.772;2022-07-23T16:14:25;31.00;50.60
19665;DHT22;9980;51.020;7.772;2022-07-23T16:16:52;31.00;50.40
19665;DHT22;9980;51.020;7.772;2022-07-23T16:19:19;30.90;51.50
19665;DHT22;9980;51.020;7.772;2022-07-23T16:21:46;30.90;50.60
19665;DHT22;9980;51.020;7.772;2022-07-23T16:24:16;30.80;50.50
19665;DHT22;9980;51.020;7.772;2022-07-23T16:26:44;30.80;51.40
19665;DHT22;9980;51.020;7.772;2022-07-23T16:29:15;30.70;50.10
19665;DHT22;9980;51.020;7.772;2022-07-23T16:31:46;30.60;50.70
19665;DHT22;9980;51.020;7.772;2022-07-23T16:34:14;30.60;51.50
19665;DHT22;9980;51.020;7.772;2022-07-23T16:36:41;30.60;51.20
19665;DHT22;9980;51.020;7.772;2022-07-23T16:39:08;30.50;51.00
19665;DHT22;9980;51.020;7.772;2022-07-23T16:41:36;30.50;50.60
19665;DHT22;9980;51.020;7.772;2022-07-23T16:44:03;30.50;50.80
19665;DHT22;9980;51.020;7.772;2022-07-23T16:46:31;30.40;51.30